This is the latest recevied weather packets stored in our database for station/object CT1EBQ-13. If no packets are shown the sender has not sent any weather packets the latest 1 day(s).
| Time | Temp. | Humidity | Pressure | Rain* | Wind** | Luminosity | Snow |
|---|---|---|---|---|---|---|---|
| 1778115360 | 13.33° C | 85% | 1011 hPa | 0 mm | - | - | - |
| 1778114159 | 13.33° C | 85% | 1011 hPa | 0 mm | - | - | - |
| 1778112958 | 13.33° C | 85% | 1011 hPa | 0 mm | - | - | - |
| 1778108155 | 13.33° C | 85% | 1011 hPa | 0 mm | - | - | - |
| 1778100950 | 15° C | 80% | 1012 hPa | 0 mm | - | - | - |
| 1778097347 | 16.11° C | 73% | 1011 hPa | 0 mm | - | - | - |
| 1778096147 | 17.78° C | 64% | 1011 hPa | 0 mm | - | - | - |
| 1778092546 | 18.89° C | 55% | 1011 hPa | 0 mm | - | - | - |
| 1778091345 | 18.89° C | 55% | 1011 hPa | 0 mm | - | - | - |
| 1778090144 | 18.89° C | 55% | 1011 hPa | 0 mm | - | - | - |
| 1778085338 | 21.11° C | 38% | 1011 hPa | 0 mm | - | - | - |
| 1778084138 | 21.11° C | 38% | 1011 hPa | 0 mm | - | - | - |
| 1778082938 | 21.11° C | 38% | 1011 hPa | 0 mm | - | - | - |
| 1778081738 | 21.11° C | 38% | 1011 hPa | 0 mm | - | - | - |
| 1778080537 | 21.11° C | 38% | 1011 hPa | 0 mm | - | - | - |
| 1778075734 | 21.11° C | 38% | 1011 hPa | 0 mm | - | - | - |
| 1778074533 | 21.11° C | 38% | 1012 hPa | 0 mm | - | - | - |
| 1778073331 | 21.11° C | 38% | 1012 hPa | 0 mm | - | - | - |
| 1778072131 | 21.11° C | 38% | 1012 hPa | 0 mm | - | - | - |
| 1778070929 | 21.11° C | 38% | 1012 hPa | 0 mm | - | - | - |
| 1778069728 | 21.11° C | 38% | 1012 hPa | 0 mm | - | - | - |
| 1778068526 | 21.11° C | 38% | 1012 hPa | 0 mm | - | - | - |
| 1778067325 | 18.89° C | 54% | 1012 hPa | 0 mm | - | - | - |
| 1778066124 | 18.89° C | 54% | 1013 hPa | 0 mm | - | - | - |
| 1778063721 | 18.89° C | 54% | 1014 hPa | 0 mm | - | - | - |
* Rain latest hour (hover to see other rain measurements)
** Current wind speed in m/s (hover to see current wind gust speed)